sensor_id;sensor_type;location;lat;lon;timestamp;pressure;altitude;pressure_sealevel;temperature;humidity
84593;BME280;74832;51.656;5.298;2024-02-14T00:00:21;101398.43;;;16.03;59.04
84593;BME280;74832;51.656;5.298;2024-02-14T00:00:52;101394.22;;;16.07;58.98
84593;BME280;74832;51.656;5.298;2024-02-14T00:01:22;101396.04;;;16.04;58.96
84593;BME280;74832;51.656;5.298;2024-02-14T00:01:52;101392.19;;;16.00;59.09
84593;BME280;74832;51.656;5.298;2024-02-14T00:02:23;101395.54;;;16.00;59.09
84593;BME280;74832;51.656;5.298;2024-02-14T00:02:57;101387.72;;;16.01;59.07
84593;BME280;74832;51.656;5.298;2024-02-14T00:03:27;101394.40;;;15.99;59.16
84593;BME280;74832;51.656;5.298;2024-02-14T00:03:57;101394.68;;;16.08;58.99
84593;BME280;74832;51.656;5.298;2024-02-14T00:04:28;101388.87;;;16.09;58.93
84593;BME280;74832;51.656;5.298;2024-02-14T00:04:58;101392.26;;;16.06;58.98
84593;BME280;74832;51.656;5.298;2024-02-14T00:05:28;101390.21;;;16.04;59.00
84593;BME280;74832;51.656;5.298;2024-02-14T00:05:59;101384.95;;;16.04;59.01
84593;BME280;74832;51.656;5.298;2024-02-14T00:06:34;101381.51;;;16.07;58.94
84593;BME280;74832;51.656;5.298;2024-02-14T00:07:05;101384.55;;;16.00;59.12
84593;BME280;74832;51.656;5.298;2024-02-14T00:07:35;101386.32;;;16.02;59.13
84593;BME280;74832;51.656;5.298;2024-02-14T00:08:06;101377.46;;;16.05;58.99
84593;BME280;74832;51.656;5.298;2024-02-14T00:08:37;101373.75;;;16.05;58.95
84593;BME280;74832;51.656;5.298;2024-02-14T00:09:12;101381.43;;;16.08;58.91
84593;BME280;74832;51.656;5.298;2024-02-14T00:09:43;101381.94;;;16.05;59.00
84593;BME280;74832;51.656;5.298;2024-02-14T00:10:13;101384.93;;;16.07;58.99
84593;BME280;74832;51.656;5.298;2024-02-14T00:10:43;101382.34;;;16.03;59.03
84593;BME280;74832;51.656;5.298;2024-02-14T00:11:14;101380.50;;;16.06;58.98
84593;BME280;74832;51.656;5.298;2024-02-14T00:11:44;101381.20;;;16.06;58.92
84593;BME280;74832;51.656;5.298;2024-02-14T00:12:15;101378.12;;;16.07;58.93
84593;BME280;74832;51.656;5.298;2024-02-14T00:12:45;101386.02;;;16.06;58.94
84593;BME280;74832;51.656;5.298;2024-02-14T00:13:16;101382.39;;;16.03;59.01
84593;BME280;74832;51.656;5.298;2024-02-14T00:13:46;101382.41;;;16.06;58.94
84593;BME280;74832;51.656;5.298;2024-02-14T00:14:17;101380.61;;;16.08;58.85
84593;BME280;74832;51.656;5.298;2024-02-14T00:14:47;101383.17;;;16.09;58.84
84593;BME280;74832;51.656;5.298;2024-02-14T00:15:18;101379.44;;;16.08;58.88
84593;BME280;74832;51.656;5.298;2024-02-14T00:15:48;101380.22;;;16.06;58.89
84593;BME280;74832;51.656;5.298;2024-02-14T00:16:19;101378.39;;;16.08;58.89
84593;BME280;74832;51.656;5.298;2024-02-14T00:16:49;101379.70;;;16.06;58.95
84593;BME280;74832;51.656;5.298;2024-02-14T00:17:19;101380.96;;;16.09;58.90
84593;BME280;74832;51.656;5.298;2024-02-14T00:17:50;101384.00;;;16.02;58.99
84593;BME280;74832;51.656;5.298;2024-02-14T00:18:20;101374.89;;;16.03;59.01
84593;BME280;74832;51.656;5.298;2024-02-14T00:18:51;101377.30;;;16.00;59.08
84593;BME280;74832;51.656;5.298;2024-02-14T00:19:21;101377.02;;;16.05;59.00
84593;BME280;74832;51.656;5.298;2024-02-14T00:19:51;101380.08;;;16.04;59.00
84593;BME280;74832;51.656;5.298;2024-02-14T00:20:22;101375.72;;;15.99;59.07
84593;BME280;74832;51.656;5.298;2024-02-14T00:20:52;101378.33;;;16.05;58.98
84593;BME280;74832;51.656;5.298;2024-02-14T00:21:22;101378.15;;;16.02;59.02
84593;BME280;74832;51.656;5.298;2024-02-14T00:21:53;101370.59;;;16.01;59.08
84593;BME280;74832;51.656;5.298;2024-02-14T00:22:23;101376.31;;;16.03;59.06
84593;BME280;74832;51.656;5.298;2024-02-14T00:22:54;101374.04;;;15.97;59.14
84593;BME280;74832;51.656;5.298;2024-02-14T00:23:24;101372.35;;;16.01;59.10
84593;BME280;74832;51.656;5.298;2024-02-14T00:23:55;101373.72;;;16.01;59.09
84593;BME280;74832;51.656;5.298;2024-02-14T00:24:25;101375.09;;;16.00;59.11
84593;BME280;74832;51.656;5.298;2024-02-14T00:24:55;101369.77;;;15.98;59.14
84593;BME280;74832;51.656;5.298;2024-02-14T00:25:26;101375.67;;;15.98;59.18
84593;BME280;74832;51.656;5.298;2024-02-14T00:25:56;101373.41;;;16.01;59.04
84593;BME280;74832;51.656;5.298;2024-02-14T00:26:27;101368.54;;;16.06;58.97
84593;BME280;74832;51.656;5.298;2024-02-14T00:26:57;101369.29;;;16.02;58.97
84593;BME280;74832;51.656;5.298;2024-02-14T00:27:27;101369.22;;;16.05;58.92
84593;BME280;74832;51.656;5.298;2024-02-14T00:27:58;101371.71;;;16.08;58.88
84593;BME280;74832;51.656;5.298;2024-02-14T00:28:28;101375.18;;;16.03;58.95
84593;BME280;74832;51.656;5.298;2024-02-14T00:28:59;101375.29;;;16.00;59.07
84593;BME280;74832;51.656;5.298;2024-02-14T00:29:29;101375.77;;;16.01;59.06
84593;BME280;74832;51.656;5.298;2024-02-14T00:29:59;101373.58;;;16.02;59.06
84593;BME280;74832;51.656;5.298;2024-02-14T00:30:30;101365.47;;;15.98;59.10
84593;BME280;74832;51.656;5.298;2024-02-14T00:31:00;101369.71;;;15.99;59.13
84593;BME280;74832;51.656;5.298;2024-02-14T00:31:30;101375.95;;;16.01;59.07
84593;BME280;74832;51.656;5.298;2024-02-14T00:32:01;101370.77;;;15.99;59.08
84593;BME280;74832;51.656;5.298;2024-02-14T00:32:32;101369.50;;;15.98;59.15
84593;BME280;74832;51.656;5.298;2024-02-14T00:33:02;101370.02;;;16.01;59.11
84593;BME280;74832;51.656;5.298;2024-02-14T00:33:33;101370.62;;;16.03;59.03
84593;BME280;74832;51.656;5.298;2024-02-14T00:34:03;101369.83;;;16.02;59.04
84593;BME280;74832;51.656;5.298;2024-02-14T00:34:33;101367.80;;;16.02;59.02
84593;BME280;74832;51.656;5.298;2024-02-14T00:35:04;101368.85;;;15.99;59.06
84593;BME280;74832;51.656;5.298;2024-02-14T00:35:35;101366.14;;;15.99;59.08
84593;BME280;74832;51.656;5.298;2024-02-14T00:36:50;101361.19;;;15.99;59.14
84593;BME280;74832;51.656;5.298;2024-02-14T00:37:21;101367.16;;;16.03;59.02
84593;BME280;74832;51.656;5.298;2024-02-14T00:37:51;101358.95;;;15.99;59.07
84593;BME280;74832;51.656;5.298;2024-02-14T00:38:21;101359.17;;;16.00;59.08
84593;BME280;74832;51.656;5.298;2024-02-14T00:38:52;101356.74;;;16.02;59.02
84593;BME280;74832;51.656;5.298;2024-02-14T00:39:22;101358.59;;;16.01;59.02
84593;BME280;74832;51.656;5.298;2024-02-14T00:39:52;101360.40;;;16.06;58.92
84593;BME280;74832;51.656;5.298;2024-02-14T00:40:23;101362.26;;;16.07;58.89
84593;BME280;74832;51.656;5.298;2024-02-14T00:40:53;101358.62;;;16.05;58.93
84593;BME280;74832;51.656;5.298;2024-02-14T00:41:24;101361.69;;;15.97;59.18
84593;BME280;74832;51.656;5.298;2024-02-14T00:41:54;101357.14;;;16.00;59.08
84593;BME280;74832;51.656;5.298;2024-02-14T00:42:25;101357.95;;;15.98;59.10
84593;BME280;74832;51.656;5.298;2024-02-14T00:42:55;101362.33;;;15.97;59.10
84593;BME280;74832;51.656;5.298;2024-02-14T00:43:26;101358.58;;;15.96;59.16
84593;BME280;74832;51.656;5.298;2024-02-14T00:43:56;101361.42;;;15.94;59.24
84593;BME280;74832;51.656;5.298;2024-02-14T00:44:26;101363.40;;;15.93;59.27
84593;BME280;74832;51.656;5.298;2024-02-14T00:44:57;101358.60;;;15.92;59.26
84593;BME280;74832;51.656;5.298;2024-02-14T00:45:27;101356.33;;;15.92;59.30
84593;BME280;74832;51.656;5.298;2024-02-14T00:45:58;101354.40;;;15.92;59.32
84593;BME280;74832;51.656;5.298;2024-02-14T00:46:28;101350.55;;;15.98;59.15
84593;BME280;74832;51.656;5.298;2024-02-14T00:46:59;101355.35;;;15.96;59.22
84593;BME280;74832;51.656;5.298;2024-02-14T00:47:29;101355.02;;;15.98;59.12
84593;BME280;74832;51.656;5.298;2024-02-14T00:47:59;101356.10;;;15.99;59.10
84593;BME280;74832;51.656;5.298;2024-02-14T00:48:32;101358.19;;;15.99;59.19
84593;BME280;74832;51.656;5.298;2024-02-14T00:49:02;101353.58;;;15.99;59.17
84593;BME280;74832;51.656;5.298;2024-02-14T00:49:34;101354.75;;;15.98;59.16
84593;BME280;74832;51.656;5.298;2024-02-14T00:50:10;101353.61;;;15.99;59.11
84593;BME280;74832;51.656;5.298;2024-02-14T00:50:41;101355.39;;;16.00;59.12
84593;BME280;74832;51.656;5.298;2024-02-14T00:51:11;101354.84;;;15.99;59.15
84593;BME280;74832;51.656;5.298;2024-02-14T00:51:41;101358.61;;;16.05;59.02
84593;BME280;74832;51.656;5.298;2024-02-14T00:52:12;101352.56;;;16.04;59.00
84593;BME280;74832;51.656;5.298;2024-02-14T00:52:43;101355.40;;;16.01;59.06
84593;BME280;74832;51.656;5.298;2024-02-14T00:53:13;101359.48;;;15.98;59.13
84593;BME280;74832;51.656;5.298;2024-02-14T00:53:43;101361.45;;;15.98;59.15
84593;BME280;74832;51.656;5.298;2024-02-14T00:54:14;101357.04;;;15.98;59.12
84593;BME280;74832;51.656;5.298;2024-02-14T00:54:44;101358.51;;;15.98;59.16
84593;BME280;74832;51.656;5.298;2024-02-14T00:55:14;101357.07;;;15.98;59.16
84593;BME280;74832;51.656;5.298;2024-02-14T00:55:45;101363.67;;;16.00;59.28
84593;BME280;74832;51.656;5.298;2024-02-14T00:56:15;101358.49;;;16.01;59.10
84593;BME280;74832;51.656;5.298;2024-02-14T00:56:46;101359.31;;;16.02;59.05
84593;BME280;74832;51.656;5.298;2024-02-14T00:57:16;101363.39;;;15.98;59.12
84593;BME280;74832;51.656;5.298;2024-02-14T00:57:46;101358.04;;;15.94;59.23
84593;BME280;74832;51.656;5.298;2024-02-14T00:58:17;101356.69;;;15.97;59.15
84593;BME280;74832;51.656;5.298;2024-02-14T00:58:47;101361.11;;;15.96;59.19
84593;BME280;74832;51.656;5.298;2024-02-14T00:59:18;101356.43;;;16.01;59.08
84593;BME280;74832;51.656;5.298;2024-02-14T00:59:48;101352.43;;;15.98;59.14
84593;BME280;74832;51.656;5.298;2024-02-14T01:00:19;101354.81;;;16.00;59.08
84593;BME280;74832;51.656;5.298;2024-02-14T01:00:49;101352.38;;;15.96;59.19
84593;BME280;74832;51.656;5.298;2024-02-14T01:01:19;101354.33;;;15.97;59.15
84593;BME280;74832;51.656;5.298;2024-02-14T01:01:50;101356.61;;;15.98;59.19
84593;BME280;74832;51.656;5.298;2024-02-14T01:02:20;101356.56;;;15.96;59.23
84593;BME280;74832;51.656;5.298;2024-02-14T01:02:51;101357.96;;;15.95;59.25
84593;BME280;74832;51.656;5.298;2024-02-14T01:03:21;101356.37;;;15.94;59.27
84593;BME280;74832;51.656;5.298;2024-02-14T01:03:51;101353.00;;;15.98;59.16
84593;BME280;74832;51.656;5.298;2024-02-14T01:04:22;101357.51;;;15.95;59.25
84593;BME280;74832;51.656;5.298;2024-02-14T01:04:52;101356.53;;;15.93;59.27
84593;BME280;74832;51.656;5.298;2024-02-14T01:05:23;101355.91;;;15.93;59.28
84593;BME280;74832;51.656;5.298;2024-02-14T01:05:54;101354.56;;;15.97;59.21
84593;BME280;74832;51.656;5.298;2024-02-14T01:06:24;101359.18;;;15.97;59.20
84593;BME280;74832;51.656;5.298;2024-02-14T01:06:54;101355.76;;;15.93;59.28
84593;BME280;74832;51.656;5.298;2024-02-14T01:07:25;101356.01;;;15.92;59.33
84593;BME280;74832;51.656;5.298;2024-02-14T01:07:55;101354.58;;;15.97;59.27
84593;BME280;74832;51.656;5.298;2024-02-14T01:08:30;101355.12;;;15.98;59.19
84593;BME280;74832;51.656;5.298;2024-02-14T01:09:01;101356.38;;;15.92;59.28
84593;BME280;74832;51.656;5.298;2024-02-14T01:09:31;101354.25;;;15.89;59.34
84593;BME280;74832;51.656;5.298;2024-02-14T01:10:02;101346.80;;;15.89;59.41
84593;BME280;74832;51.656;5.298;2024-02-14T01:10:33;101355.57;;;15.92;59.30
84593;BME280;74832;51.656;5.298;2024-02-14T01:11:03;101351.66;;;15.93;59.32
84593;BME280;74832;51.656;5.298;2024-02-14T01:11:34;101353.26;;;15.94;59.26
84593;BME280;74832;51.656;5.298;2024-02-14T01:12:10;101351.01;;;15.94;59.27
84593;BME280;74832;51.656;5.298;2024-02-14T01:12:40;101349.13;;;15.95;59.24
84593;BME280;74832;51.656;5.298;2024-02-14T01:13:11;101355.36;;;15.98;59.13
84593;BME280;74832;51.656;5.298;2024-02-14T01:13:41;101347.36;;;16.00;59.16
84593;BME280;74832;51.656;5.298;2024-02-14T01:14:12;101348.37;;;16.00;59.07
84593;BME280;74832;51.656;5.298;2024-02-14T01:14:42;101357.89;;;15.95;59.22
84593;BME280;74832;51.656;5.298;2024-02-14T01:15:12;101356.47;;;15.92;59.32
84593;BME280;74832;51.656;5.298;2024-02-14T01:15:43;101350.83;;;15.97;59.20
84593;BME280;74832;51.656;5.298;2024-02-14T01:16:13;101353.39;;;15.95;59.23
84593;BME280;74832;51.656;5.298;2024-02-14T01:16:44;101359.87;;;15.92;59.28
84593;BME280;74832;51.656;5.298;2024-02-14T01:17:15;101363.68;;;15.95;59.26
84593;BME280;74832;51.656;5.298;2024-02-14T01:17:45;101357.20;;;15.92;59.35
84593;BME280;74832;51.656;5.298;2024-02-14T01:18:16;101355.75;;;15.91;59.33
84593;BME280;74832;51.656;5.298;2024-02-14T01:18:46;101352.61;;;15.94;59.31
84593;BME280;74832;51.656;5.298;2024-02-14T01:19:17;101351.84;;;15.94;59.40
84593;BME280;74832;51.656;5.298;2024-02-14T01:19:47;101356.39;;;15.96;59.22
84593;BME280;74832;51.656;5.298;2024-02-14T01:20:18;101361.55;;;15.96;59.19
84593;BME280;74832;51.656;5.298;2024-02-14T01:20:48;101358.86;;;15.97;59.20
84593;BME280;74832;51.656;5.298;2024-02-14T01:21:18;101355.79;;;16.00;59.17
84593;BME280;74832;51.656;5.298;2024-02-14T01:21:49;101361.65;;;16.02;59.11
84593;BME280;74832;51.656;5.298;2024-02-14T01:22:19;101356.18;;;15.98;59.12
84593;BME280;74832;51.656;5.298;2024-02-14T01:22:51;101360.03;;;16.01;59.10
84593;BME280;74832;51.656;5.298;2024-02-14T01:23:21;101362.46;;;15.94;59.18
84593;BME280;74832;51.656;5.298;2024-02-14T01:23:52;101361.41;;;15.95;59.24
84593;BME280;74832;51.656;5.298;2024-02-14T01:24:22;101374.75;;;16.01;59.12
84593;BME280;74832;51.656;5.298;2024-02-14T01:24:52;101367.17;;;15.97;59.19
84593;BME280;74832;51.656;5.298;2024-02-14T01:25:23;101367.71;;;15.90;59.36
84593;BME280;74832;51.656;5.298;2024-02-14T01:25:53;101369.20;;;15.92;59.30
84593;BME280;74832;51.656;5.298;2024-02-14T01:26:23;101365.45;;;15.92;59.30
84593;BME280;74832;51.656;5.298;2024-02-14T01:26:54;101366.34;;;15.94;59.30
84593;BME280;74832;51.656;5.298;2024-02-14T01:27:24;101367.88;;;15.92;59.33
84593;BME280;74832;51.656;5.298;2024-02-14T01:27:56;101365.72;;;15.92;59.29
84593;BME280;74832;51.656;5.298;2024-02-14T01:28:26;101361.74;;;15.90;59.37
84593;BME280;74832;51.656;5.298;2024-02-14T01:28:56;101371.70;;;15.93;59.34
84593;BME280;74832;51.656;5.298;2024-02-14T01:29:27;101366.09;;;15.91;59.36
84593;BME280;74832;51.656;5.298;2024-02-14T01:29:57;101364.81;;;15.89;59.37
84593;BME280;74832;51.656;5.298;2024-02-14T01:30:27;101370.38;;;15.93;59.34
84593;BME280;74832;51.656;5.298;2024-02-14T01:30:58;101370.93;;;15.87;59.46
84593;BME280;74832;51.656;5.298;2024-02-14T01:31:28;101371.35;;;15.92;59.40
84593;BME280;74832;51.656;5.298;2024-02-14T01:31:59;101367.58;;;15.91;59.40
84593;BME280;74832;51.656;5.298;2024-02-14T01:32:29;101370.40;;;15.93;59.39
84593;BME280;74832;51.656;5.298;2024-02-14T01:33:00;101371.84;;;15.90;59.38
84593;BME280;74832;51.656;5.298;2024-02-14T01:33:30;101375.89;;;15.93;59.36
84593;BME280;74832;51.656;5.298;2024-02-14T01:34:00;101369.69;;;15.96;59.32
84593;BME280;74832;51.656;5.298;2024-02-14T01:34:31;101377.04;;;15.97;59.19
84593;BME280;74832;51.656;5.298;2024-02-14T01:35:01;101379.76;;;15.96;59.28
84593;BME280;74832;51.656;5.298;2024-02-14T01:35:32;101375.58;;;15.94;59.29
84593;BME280;74832;51.656;5.298;2024-02-14T01:36:03;101374.90;;;15.95;59.25
84593;BME280;74832;51.656;5.298;2024-02-14T01:36:33;101373.63;;;15.97;59.30
84593;BME280;74832;51.656;5.298;2024-02-14T01:37:03;101376.50;;;15.97;59.26
84593;BME280;74832;51.656;5.298;2024-02-14T01:37:34;101378.97;;;15.95;59.28
84593;BME280;74832;51.656;5.298;2024-02-14T01:38:05;101379.18;;;15.89;59.42
84593;BME280;74832;51.656;5.298;2024-02-14T01:38:38;101378.47;;;15.91;59.40
84593;BME280;74832;51.656;5.298;2024-02-14T01:39:08;101384.03;;;15.95;59.28
84593;BME280;74832;51.656;5.298;2024-02-14T01:39:38;101384.29;;;15.97;59.22
84593;BME280;74832;51.656;5.298;2024-02-14T01:40:10;101383.26;;;15.96;59.27
84593;BME280;74832;51.656;5.298;2024-02-14T01:40:42;101381.69;;;15.93;59.34
84593;BME280;74832;51.656;5.298;2024-02-14T01:41:12;101381.76;;;15.94;59.29
84593;BME280;74832;51.656;5.298;2024-02-14T01:41:44;101377.03;;;15.93;59.28
84593;BME280;74832;51.656;5.298;2024-02-14T01:42:15;101376.62;;;15.94;59.29
84593;BME280;74832;51.656;5.298;2024-02-14T01:42:45;101378.91;;;15.97;59.24
84593;BME280;74832;51.656;5.298;2024-02-14T01:43:15;101378.20;;;15.97;59.19
84593;BME280;74832;51.656;5.298;2024-02-14T01:43:46;101374.43;;;15.96;59.22
84593;BME280;74832;51.656;5.298;2024-02-14T01:44:17;101377.59;;;15.95;59.24
84593;BME280;74832;51.656;5.298;2024-02-14T01:44:47;101376.07;;;15.99;59.17
84593;BME280;74832;51.656;5.298;2024-02-14T01:45:18;101382.25;;;15.98;59.15
84593;BME280;74832;51.656;5.298;2024-02-14T01:45:48;101383.75;;;15.97;59.21
84593;BME280;74832;51.656;5.298;2024-02-14T01:46:18;101379.82;;;15.96;59.22
84593;BME280;74832;51.656;5.298;2024-02-14T01:46:49;101384.30;;;15.95;59.23
84593;BME280;74832;51.656;5.298;2024-02-14T01:47:19;101382.47;;;15.95;59.25
84593;BME280;74832;51.656;5.298;2024-02-14T01:47:50;101378.42;;;15.93;59.31
84593;BME280;74832;51.656;5.298;2024-02-14T01:48:21;101384.91;;;15.97;59.26
84593;BME280;74832;51.656;5.298;2024-02-14T01:48:51;101385.46;;;15.96;59.23
84593;BME280;74832;51.656;5.298;2024-02-14T01:49:22;101381.45;;;15.95;59.30
84593;BME280;74832;51.656;5.298;2024-02-14T01:49:53;101383.16;;;15.98;59.20
84593;BME280;74832;51.656;5.298;2024-02-14T01:50:23;101383.98;;;16.02;59.10
84593;BME280;74832;51.656;5.298;2024-02-14T01:50:53;101381.10;;;15.96;59.27
84593;BME280;74832;51.656;5.298;2024-02-14T01:51:24;101379.53;;;15.97;59.25
84593;BME280;74832;51.656;5.298;2024-02-14T01:51:56;101382.20;;;15.95;59.25
84593;BME280;74832;51.656;5.298;2024-02-14T01:52:28;101383.07;;;15.95;59.26
84593;BME280;74832;51.656;5.298;2024-02-14T01:53:00;101387.24;;;15.98;59.19
84593;BME280;74832;51.656;5.298;2024-02-14T01:53:31;101382.27;;;15.96;59.37
84593;BME280;74832;51.656;5.298;2024-02-14T01:54:02;101388.27;;;15.94;59.27
84593;BME280;74832;51.656;5.298;2024-02-14T01:54:33;101383.24;;;15.90;59.39
84593;BME280;74832;51.656;5.298;2024-02-14T01:55:05;101385.71;;;15.94;59.33
84593;BME280;74832;51.656;5.298;2024-02-14T01:55:37;101382.37;;;15.96;59.26
84593;BME280;74832;51.656;5.298;2024-02-14T01:56:08;101389.36;;;15.98;59.21
84593;BME280;74832;51.656;5.298;2024-02-14T01:56:39;101385.93;;;15.92;59.32
84593;BME280;74832;51.656;5.298;2024-02-14T01:57:09;101388.32;;;15.88;59.43
84593;BME280;74832;51.656;5.298;2024-02-14T01:57:40;101387.59;;;15.93;59.39
84593;BME280;74832;51.656;5.298;2024-02-14T01:58:10;101383.11;;;15.91;59.39
84593;BME280;74832;51.656;5.298;2024-02-14T01:58:41;101382.25;;;15.91;59.37
84593;BME280;74832;51.656;5.298;2024-02-14T01:59:13;101385.13;;;15.91;59.40
84593;BME280;74832;51.656;5.298;2024-02-14T01:59:43;101377.26;;;15.91;59.41
84593;BME280;74832;51.656;5.298;2024-02-14T02:00:14;101384.12;;;15.90;59.42
84593;BME280;74832;51.656;5.298;2024-02-14T02:00:45;101380.71;;;15.92;59.39
84593;BME280;74832;51.656;5.298;2024-02-14T02:01:16;101384.16;;;15.96;59.29
84593;BME280;74832;51.656;5.298;2024-02-14T02:01:46;101386.14;;;15.93;59.32
84593;BME280;74832;51.656;5.298;2024-02-14T02:02:17;101385.79;;;15.95;59.33
84593;BME280;74832;51.656;5.298;2024-02-14T02:02:48;101384.31;;;15.95;59.29
84593;BME280;74832;51.656;5.298;2024-02-14T02:03:18;101386.65;;;15.96;59.28
84593;BME280;74832;51.656;5.298;2024-02-14T02:03:49;101382.68;;;15.93;59.33
84593;BME280;74832;51.656;5.298;2024-02-14T02:04:19;101384.47;;;15.96;59.29
84593;BME280;74832;51.656;5.298;2024-02-14T02:04:50;101387.52;;;15.95;59.32
84593;BME280;74832;51.656;5.298;2024-02-14T02:05:20;101383.20;;;15.93;59.26
84593;BME280;74832;51.656;5.298;2024-02-14T02:05:51;101397.19;;;15.89;59.48
84593;BME280;74832;51.656;5.298;2024-02-14T02:06:21;101386.27;;;15.93;59.35
84593;BME280;74832;51.656;5.298;2024-02-14T02:06:52;101384.33;;;15.95;59.33
84593;BME280;74832;51.656;5.298;2024-02-14T02:07:22;101386.26;;;15.91;59.43
84593;BME280;74832;51.656;5.298;2024-02-14T02:07:53;101386.93;;;15.88;59.51
84593;BME280;74832;51.656;5.298;2024-02-14T02:08:23;101382.20;;;15.89;59.53
84593;BME280;74832;51.656;5.298;2024-02-14T02:08:53;101385.39;;;15.88;59.51
84593;BME280;74832;51.656;5.298;2024-02-14T02:09:24;101387.57;;;15.92;59.42
84593;BME280;74832;51.656;5.298;2024-02-14T02:09:54;101383.20;;;15.93;59.39
84593;BME280;74832;51.656;5.298;2024-02-14T02:10:24;101386.57;;;15.96;59.33
84593;BME280;74832;51.656;5.298;2024-02-14T02:11:45;101383.44;;;15.91;59.38
84593;BME280;74832;51.656;5.298;2024-02-14T02:12:16;101385.56;;;15.90;59.48
84593;BME280;74832;51.656;5.298;2024-02-14T02:12:46;101387.71;;;15.93;59.40
84593;BME280;74832;51.656;5.298;2024-02-14T02:13:17;101390.95;;;15.92;59.46
84593;BME280;74832;51.656;5.298;2024-02-14T02:13:47;101392.11;;;15.97;59.35
84593;BME280;74832;51.656;5.298;2024-02-14T02:14:18;101390.46;;;15.91;59.45
84593;BME280;74832;51.656;5.298;2024-02-14T02:14:48;101391.02;;;15.93;59.41
84593;BME280;74832;51.656;5.298;2024-02-14T02:15:18;101393.46;;;15.95;59.39
84593;BME280;74832;51.656;5.298;2024-02-14T02:15:49;101389.82;;;15.90;59.40
84593;BME280;74832;51.656;5.298;2024-02-14T02:16:19;101390.30;;;15.87;59.48
84593;BME280;74832;51.656;5.298;2024-02-14T02:16:50;101383.81;;;15.88;59.51
84593;BME280;74832;51.656;5.298;2024-02-14T02:17:20;101384.49;;;15.91;59.48
84593;BME280;74832;51.656;5.298;2024-02-14T02:17:50;101380.43;;;15.94;59.35
84593;BME280;74832;51.656;5.298;2024-02-14T02:18:21;101380.28;;;15.93;59.36
84593;BME280;74832;51.656;5.298;2024-02-14T02:18:51;101377.80;;;15.95;59.31
84593;BME280;74832;51.656;5.298;2024-02-14T02:19:21;101378.58;;;15.93;59.38
84593;BME280;74832;51.656;5.298;2024-02-14T02:19:53;101375.28;;;15.92;59.48
84593;BME280;74832;51.656;5.298;2024-02-14T02:20:23;101376.82;;;15.92;59.43
84593;BME280;74832;51.656;5.298;2024-02-14T02:20:54;101377.75;;;15.92;59.42
84593;BME280;74832;51.656;5.298;2024-02-14T02:21:24;101373.45;;;15.97;59.35
84593;BME280;74832;51.656;5.298;2024-02-14T02:21:55;101370.95;;;15.98;59.33
84593;BME280;74832;51.656;5.298;2024-02-14T02:22:25;101370.16;;;15.98;59.31
84593;BME280;74832;51.656;5.298;2024-02-14T02:22:55;101370.50;;;15.95;59.31
84593;BME280;74832;51.656;5.298;2024-02-14T02:23:26;101376.21;;;15.95;59.36
84593;BME280;74832;51.656;5.298;2024-02-14T02:23:56;101370.68;;;15.94;59.40
84593;BME280;74832;51.656;5.298;2024-02-14T02:24:27;101374.86;;;15.98;59.35
84593;BME280;74832;51.656;5.298;2024-02-14T02:24:57;101377.56;;;15.97;59.29
84593;BME280;74832;51.656;5.298;2024-02-14T02:25:27;101371.48;;;15.96;59.33
84593;BME280;74832;51.656;5.298;2024-02-14T02:26:05;101375.39;;;16.03;59.19
84593;BME280;74832;51.656;5.298;2024-02-14T02:26:35;101379.73;;;16.06;59.09
84593;BME280;74832;51.656;5.298;2024-02-14T02:27:06;101379.94;;;16.06;59.12
84593;BME280;74832;51.656;5.298;2024-02-14T02:27:36;101371.95;;;16.10;58.96
84593;BME280;74832;51.656;5.298;2024-02-14T02:28:07;101378.97;;;16.10;58.98
84593;BME280;74832;51.656;5.298;2024-02-14T02:28:37;101377.64;;;16.10;58.98
84593;BME280;74832;51.656;5.298;2024-02-14T02:29:07;101383.56;;;16.09;58.96
84593;BME280;74832;51.656;5.298;2024-02-14T02:29:38;101376.87;;;16.09;59.00
84593;BME280;74832;51.656;5.298;2024-02-14T02:30:08;101375.92;;;16.14;58.91
84593;BME280;74832;51.656;5.298;2024-02-14T02:30:39;101370.67;;;16.16;58.80
84593;BME280;74832;51.656;5.298;2024-02-14T02:31:09;101375.09;;;16.16;58.78
84593;BME280;74832;51.656;5.298;2024-02-14T02:31:40;101379.14;;;16.15;58.82
84593;BME280;74832;51.656;5.298;2024-02-14T02:32:10;101377.67;;;16.12;58.89
84593;BME280;74832;51.656;5.298;2024-02-14T02:32:41;101380.21;;;16.12;58.90
84593;BME280;74832;51.656;5.298;2024-02-14T02:33:12;101381.03;;;16.16;58.84
84593;BME280;74832;51.656;5.298;2024-02-14T02:33:42;101371.75;;;16.16;58.88
84593;BME280;74832;51.656;5.298;2024-02-14T02:34:13;101363.97;;;16.18;58.74
84593;BME280;74832;51.656;5.298;2024-02-14T02:34:43;101374.16;;;16.20;58.73
84593;BME280;74832;51.656;5.298;2024-02-14T02:35:14;101379.77;;;16.16;58.81
84593;BME280;74832;51.656;5.298;2024-02-14T02:35:44;101375.59;;;16.18;58.78
84593;BME280;74832;51.656;5.298;2024-02-14T02:36:14;101381.95;;;16.16;58.85
84593;BME280;74832;51.656;5.298;2024-02-14T02:36:45;101376.78;;;16.16;58.90
84593;BME280;74832;51.656;5.298;2024-02-14T02:37:15;101378.49;;;16.20;58.75
84593;BME280;74832;51.656;5.298;2024-02-14T02:37:46;101383.82;;;16.21;58.74
84593;BME280;74832;51.656;5.298;2024-02-14T02:38:16;101378.12;;;16.23;58.76
84593;BME280;74832;51.656;5.298;2024-02-14T02:38:47;101378.17;;;16.21;58.75
84593;BME280;74832;51.656;5.298;2024-02-14T02:39:17;101375.46;;;16.20;58.76
84593;BME280;74832;51.656;5.298;2024-02-14T02:39:47;101374.49;;;16.22;58.73
84593;BME280;74832;51.656;5.298;2024-02-14T02:40:19;101378.10;;;16.21;58.78
84593;BME280;74832;51.656;5.298;2024-02-14T02:40:49;101383.77;;;16.23;58.74
84593;BME280;74832;51.656;5.298;2024-02-14T02:41:19;101378.00;;;16.22;58.75
84593;BME280;74832;51.656;5.298;2024-02-14T02:41:50;101372.85;;;16.19;58.81